sensor_id;sensor_type;location;lat;lon;timestamp;pressure;altitude;pressure_sealevel;temperature;humidity
74895;BME280;63447;49.446;8.666;2024-03-08T00:01:36;100360.06;;;5.76;67.85
74895;BME280;63447;49.446;8.666;2024-03-08T00:04:05;100354.78;;;5.79;68.52
74895;BME280;63447;49.446;8.666;2024-03-08T00:06:32;100341.75;;;5.58;68.12
74895;BME280;63447;49.446;8.666;2024-03-08T00:09:02;100339.03;;;5.58;67.52
74895;BME280;63447;49.446;8.666;2024-03-08T00:11:29;100331.31;;;5.60;67.57
74895;BME280;63447;49.446;8.666;2024-03-08T00:13:56;100330.81;;;5.58;66.81
74895;BME280;63447;49.446;8.666;2024-03-08T00:16:21;100342.41;;;5.68;68.05
74895;BME280;63447;49.446;8.666;2024-03-08T00:18:49;100304.13;;;5.50;67.73
74895;BME280;63447;49.446;8.666;2024-03-08T00:21:15;100313.97;;;5.51;68.01
74895;BME280;63447;49.446;8.666;2024-03-08T00:23:40;100325.41;;;5.53;67.83
74895;BME280;63447;49.446;8.666;2024-03-08T00:26:08;100318.63;;;5.50;67.86
74895;BME280;63447;49.446;8.666;2024-03-08T00:28:38;100321.13;;;5.46;68.63
74895;BME280;63447;49.446;8.666;2024-03-08T00:31:06;100320.59;;;5.63;68.36
74895;BME280;63447;49.446;8.666;2024-03-08T00:33:34;100325.25;;;5.63;67.46
74895;BME280;63447;49.446;8.666;2024-03-08T00:36:01;100310.94;;;5.52;67.85
74895;BME280;63447;49.446;8.666;2024-03-08T00:38:31;100304.53;;;5.43;68.70
74895;BME280;63447;49.446;8.666;2024-03-08T00:40:59;100311.72;;;5.39;68.89
74895;BME280;63447;49.446;8.666;2024-03-08T00:43:29;100314.25;;;5.49;68.99
74895;BME280;63447;49.446;8.666;2024-03-08T00:45:57;100297.72;;;5.40;68.32
74895;BME280;63447;49.446;8.666;2024-03-08T00:48:23;100288.72;;;5.40;67.35
74895;BME280;63447;49.446;8.666;2024-03-08T00:50:48;100295.69;;;5.46;67.74
74895;BME280;63447;49.446;8.666;2024-03-08T00:53:13;100292.56;;;5.39;67.56
74895;BME280;63447;49.446;8.666;2024-03-08T00:55:41;100302.97;;;5.37;68.57
74895;BME280;63447;49.446;8.666;2024-03-08T00:58:09;100302.47;;;5.35;67.96
74895;BME280;63447;49.446;8.666;2024-03-08T01:00:34;100282.16;;;5.22;68.70
74895;BME280;63447;49.446;8.666;2024-03-08T01:03:04;100298.38;;;5.19;69.37
74895;BME280;63447;49.446;8.666;2024-03-08T01:05:34;100294.53;;;5.20;68.98
74895;BME280;63447;49.446;8.666;2024-03-08T01:08:01;100294.81;;;5.18;68.86
74895;BME280;63447;49.446;8.666;2024-03-08T01:10:28;100278.78;;;5.11;68.53
74895;BME280;63447;49.446;8.666;2024-03-08T01:12:56;100277.78;;;5.21;68.64
74895;BME280;63447;49.446;8.666;2024-03-08T01:15:23;100270.78;;;5.15;69.34
74895;BME280;63447;49.446;8.666;2024-03-08T01:17:48;100275.69;;;5.18;68.95
74895;BME280;63447;49.446;8.666;2024-03-08T01:20:13;100258.75;;;4.97;68.25
74895;BME280;63447;49.446;8.666;2024-03-08T01:22:41;100282.66;;;5.24;68.26
74895;BME280;63447;49.446;8.666;2024-03-08T01:25:09;100270.22;;;5.18;68.41
74895;BME280;63447;49.446;8.666;2024-03-08T01:27:35;100262.38;;;5.11;69.19
74895;BME280;63447;49.446;8.666;2024-03-08T01:30:02;100267.47;;;5.18;69.08
74895;BME280;63447;49.446;8.666;2024-03-08T01:32:32;100267.66;;;5.22;68.62
74895;BME280;63447;49.446;8.666;2024-03-08T01:35:00;100262.06;;;5.13;69.20
74895;BME280;63447;49.446;8.666;2024-03-08T01:37:27;100256.31;;;5.15;68.78
74895;BME280;63447;49.446;8.666;2024-03-08T01:39:55;100261.63;;;5.06;69.50
74895;BME280;63447;49.446;8.666;2024-03-08T01:42:23;100256.16;;;5.06;68.89
74895;BME280;63447;49.446;8.666;2024-03-08T01:44:51;100246.94;;;5.02;68.84
74895;BME280;63447;49.446;8.666;2024-03-08T01:47:17;100236.38;;;4.95;68.77
74895;BME280;63447;49.446;8.666;2024-03-08T01:49:43;100235.72;;;4.85;68.59
74895;BME280;63447;49.446;8.666;2024-03-08T01:52:09;100241.94;;;4.90;68.61
74895;BME280;63447;49.446;8.666;2024-03-08T01:54:37;100238.16;;;4.86;67.98
74895;BME280;63447;49.446;8.666;2024-03-08T01:57:05;100243.97;;;4.98;68.05
74895;BME280;63447;49.446;8.666;2024-03-08T01:59:30;100242.66;;;4.96;68.15
74895;BME280;63447;49.446;8.666;2024-03-08T02:02:01;100248.13;;;4.96;67.19
74895;BME280;63447;49.446;8.666;2024-03-08T02:04:29;100225.25;;;4.92;66.81
74895;BME280;63447;49.446;8.666;2024-03-08T02:06:56;100233.63;;;4.95;67.09
74895;BME280;63447;49.446;8.666;2024-03-08T02:09:25;100221.19;;;4.89;67.59
74895;BME280;63447;49.446;8.666;2024-03-08T02:11:54;100211.94;;;4.85;67.68
74895;BME280;63447;49.446;8.666;2024-03-08T02:14:20;100202.78;;;4.76;67.04
74895;BME280;63447;49.446;8.666;2024-03-08T02:16:45;100202.78;;;4.76;67.07
74895;BME280;63447;49.446;8.666;2024-03-08T02:19:12;100206.03;;;4.78;67.42
74895;BME280;63447;49.446;8.666;2024-03-08T02:21:40;100204.41;;;4.77;66.92
74895;BME280;63447;49.446;8.666;2024-03-08T02:24:08;100210.75;;;4.91;66.60
74895;BME280;63447;49.446;8.666;2024-03-08T02:26:36;100186.19;;;4.54;67.37
74895;BME280;63447;49.446;8.666;2024-03-08T02:29:02;100202.84;;;4.71;67.75
74895;BME280;63447;49.446;8.666;2024-03-08T02:31:27;100185.91;;;4.55;67.52
74895;BME280;63447;49.446;8.666;2024-03-08T02:33:53;100213.13;;;4.79;67.08
74895;BME280;63447;49.446;8.666;2024-03-08T02:36:23;100196.88;;;4.69;67.36
74895;BME280;63447;49.446;8.666;2024-03-08T02:38:50;100187.97;;;4.44;67.85
74895;BME280;63447;49.446;8.666;2024-03-08T02:41:15;100204.38;;;4.63;67.99
74895;BME280;63447;49.446;8.666;2024-03-08T02:43:43;100192.19;;;4.56;68.81
74895;BME280;63447;49.446;8.666;2024-03-08T02:46:11;100196.53;;;4.57;67.79
74895;BME280;63447;49.446;8.666;2024-03-08T02:48:40;100175.84;;;4.51;68.51
74895;BME280;63447;49.446;8.666;2024-03-08T02:51:05;100160.88;;;4.29;69.37
74895;BME280;63447;49.446;8.666;2024-03-08T02:53:33;100174.31;;;4.44;68.08
74895;BME280;63447;49.446;8.666;2024-03-08T02:55:58;100169.47;;;4.41;68.78
74895;BME280;63447;49.446;8.666;2024-03-08T02:58:24;100184.13;;;4.64;68.08
74895;BME280;63447;49.446;8.666;2024-03-08T03:00:49;100170.38;;;4.51;68.36
74895;BME280;63447;49.446;8.666;2024-03-08T03:03:17;100173.28;;;4.40;69.15
74895;BME280;63447;49.446;8.666;2024-03-08T03:05:47;100180.44;;;4.55;68.42
74895;BME280;63447;49.446;8.666;2024-03-08T03:08:12;100170.63;;;4.35;69.00
74895;BME280;63447;49.446;8.666;2024-03-08T03:10:38;100166.94;;;4.26;68.79
74895;BME280;63447;49.446;8.666;2024-03-08T03:13:03;100185.84;;;4.41;69.36
74895;BME280;63447;49.446;8.666;2024-03-08T03:15:32;100179.06;;;4.39;69.27
74895;BME280;63447;49.446;8.666;2024-03-08T03:18:01;100185.53;;;4.24;69.35
74895;BME280;63447;49.446;8.666;2024-03-08T03:20:26;100163.19;;;4.41;69.49
74895;BME280;63447;49.446;8.666;2024-03-08T03:22:57;100163.66;;;4.43;69.55
74895;BME280;63447;49.446;8.666;2024-03-08T03:25:23;100176.63;;;4.37;69.86
74895;BME280;63447;49.446;8.666;2024-03-08T03:27:54;100170.53;;;4.22;69.76
74895;BME280;63447;49.446;8.666;2024-03-08T03:30:27;100170.19;;;4.28;69.85
74895;BME280;63447;49.446;8.666;2024-03-08T03:33:01;100156.59;;;4.23;70.40
74895;BME280;63447;49.446;8.666;2024-03-08T03:35:36;100151.00;;;4.15;70.44
74895;BME280;63447;49.446;8.666;2024-03-08T03:38:04;100149.09;;;4.15;69.23
74895;BME280;63447;49.446;8.666;2024-03-08T03:40:36;100156.38;;;4.20;70.84
74895;BME280;63447;49.446;8.666;2024-03-08T03:43:02;100169.31;;;4.14;70.25
74895;BME280;63447;49.446;8.666;2024-03-08T03:45:28;100147.34;;;4.00;71.03
74895;BME280;63447;49.446;8.666;2024-03-08T03:48:00;100169.59;;;4.13;71.01
74895;BME280;63447;49.446;8.666;2024-03-08T03:50:25;100133.06;;;3.90;71.31
74895;BME280;63447;49.446;8.666;2024-03-08T03:52:51;100159.03;;;4.06;71.17
74895;BME280;63447;49.446;8.666;2024-03-08T03:55:16;100157.09;;;3.88;72.23
74895;BME280;63447;49.446;8.666;2024-03-08T03:57:45;100158.44;;;4.09;71.50
74895;BME280;63447;49.446;8.666;2024-03-08T04:00:13;100129.94;;;3.96;71.49
74895;BME280;63447;49.446;8.666;2024-03-08T04:02:39;100169.06;;;4.11;71.69
74895;BME280;63447;49.446;8.666;2024-03-08T04:05:05;100140.28;;;3.99;71.77
74895;BME280;63447;49.446;8.666;2024-03-08T04:07:35;100153.13;;;3.99;71.82
74895;BME280;63447;49.446;8.666;2024-03-08T04:10:05;100145.50;;;3.96;72.45
74895;BME280;63447;49.446;8.666;2024-03-08T04:12:34;100136.28;;;3.92;72.26
74895;BME280;63447;49.446;8.666;2024-03-08T04:14:59;100145.81;;;3.94;72.32
74895;BME280;63447;49.446;8.666;2024-03-08T04:17:25;100146.03;;;3.98;71.56
74895;BME280;63447;49.446;8.666;2024-03-08T04:19:55;100143.59;;;3.96;72.56
74895;BME280;63447;49.446;8.666;2024-03-08T04:22:20;100136.50;;;3.95;72.51
74895;BME280;63447;49.446;8.666;2024-03-08T04:24:46;100146.19;;;3.88;72.78
74895;BME280;63447;49.446;8.666;2024-03-08T04:27:11;100132.44;;;3.93;72.05
74895;BME280;63447;49.446;8.666;2024-03-08T04:29:37;100132.31;;;3.84;72.40
74895;BME280;63447;49.446;8.666;2024-03-08T04:32:04;100135.91;;;3.80;73.17
74895;BME280;63447;49.446;8.666;2024-03-08T04:34:30;100112.44;;;3.79;72.43
74895;BME280;63447;49.446;8.666;2024-03-08T04:37:02;100108.44;;;3.71;72.24
74895;BME280;63447;49.446;8.666;2024-03-08T04:39:30;100121.50;;;3.74;73.55
74895;BME280;63447;49.446;8.666;2024-03-08T04:42:01;100107.56;;;3.75;73.27
74895;BME280;63447;49.446;8.666;2024-03-08T04:44:30;100110.25;;;3.81;72.72
74895;BME280;63447;49.446;8.666;2024-03-08T04:46:58;100110.75;;;3.83;72.86
74895;BME280;63447;49.446;8.666;2024-03-08T04:49:23;100103.88;;;3.66;73.53
74895;BME280;63447;49.446;8.666;2024-03-08T04:51:48;100110.38;;;3.70;73.24
74895;BME280;63447;49.446;8.666;2024-03-08T04:54:16;100101.03;;;3.77;73.18
74895;BME280;63447;49.446;8.666;2024-03-08T04:56:42;100090.09;;;3.58;74.10
74895;BME280;63447;49.446;8.666;2024-03-08T04:59:07;100102.13;;;3.75;72.95
74895;BME280;63447;49.446;8.666;2024-03-08T05:01:33;100101.44;;;3.65;74.38
74895;BME280;63447;49.446;8.666;2024-03-08T05:04:01;100105.50;;;3.67;74.23
74895;BME280;63447;49.446;8.666;2024-03-08T05:06:26;100083.25;;;3.60;73.79
74895;BME280;63447;49.446;8.666;2024-03-08T05:08:52;100107.22;;;3.82;73.10
74895;BME280;63447;49.446;8.666;2024-03-08T05:11:19;100097.88;;;3.64;73.66
74895;BME280;63447;49.446;8.666;2024-03-08T05:13:44;100111.69;;;3.73;73.16
74895;BME280;63447;49.446;8.666;2024-03-08T05:16:10;100108.63;;;3.80;73.22
74895;BME280;63447;49.446;8.666;2024-03-08T05:18:37;100112.75;;;3.77;73.53
74895;BME280;63447;49.446;8.666;2024-03-08T05:21:05;100093.03;;;3.61;73.62
74895;BME280;63447;49.446;8.666;2024-03-08T05:23:31;100107.56;;;3.75;74.07
74895;BME280;63447;49.446;8.666;2024-03-08T05:25:59;100095.09;;;3.69;73.83
74895;BME280;63447;49.446;8.666;2024-03-08T05:28:29;100087.72;;;3.51;74.73
74895;BME280;63447;49.446;8.666;2024-03-08T05:30:54;100099.16;;;3.53;74.43
74895;BME280;63447;49.446;8.666;2024-03-08T05:33:21;100108.72;;;3.51;75.60
74895;BME280;63447;49.446;8.666;2024-03-08T05:35:48;100085.06;;;3.65;74.85
74895;BME280;63447;49.446;8.666;2024-03-08T05:38:14;100089.22;;;3.62;74.12
74895;BME280;63447;49.446;8.666;2024-03-08T05:40:39;100088.00;;;3.50;75.09
74895;BME280;63447;49.446;8.666;2024-03-08T05:43:08;100093.22;;;3.46;75.59
74895;BME280;63447;49.446;8.666;2024-03-08T05:45:33;100096.59;;;3.38;76.47
74895;BME280;63447;49.446;8.666;2024-03-08T05:47:59;100100.06;;;3.44;76.11
74895;BME280;63447;49.446;8.666;2024-03-08T05:50:26;100088.84;;;3.26;76.20
74895;BME280;63447;49.446;8.666;2024-03-08T05:52:52;100089.44;;;3.42;76.25
74895;BME280;63447;49.446;8.666;2024-03-08T05:55:17;100095.19;;;3.40;76.43
74895;BME280;63447;49.446;8.666;2024-03-08T05:57:42;100098.22;;;3.39;76.30
74895;BME280;63447;49.446;8.666;2024-03-08T06:00:09;100090.34;;;3.37;76.50
74895;BME280;63447;49.446;8.666;2024-03-08T06:02:40;100098.16;;;3.44;76.51
74895;BME280;63447;49.446;8.666;2024-03-08T06:05:09;100096.66;;;3.33;76.54
74895;BME280;63447;49.446;8.666;2024-03-08T06:07:37;100083.47;;;3.40;77.08
74895;BME280;63447;49.446;8.666;2024-03-08T06:10:09;100080.63;;;3.50;76.18
74895;BME280;63447;49.446;8.666;2024-03-08T06:12:36;100081.84;;;3.39;77.61
74895;BME280;63447;49.446;8.666;2024-03-08T06:15:06;100077.91;;;3.50;76.05
74895;BME280;63447;49.446;8.666;2024-03-08T06:17:31;100078.03;;;3.40;76.69
74895;BME280;63447;49.446;8.666;2024-03-08T06:19:57;100092.63;;;3.49;77.11
74895;BME280;63447;49.446;8.666;2024-03-08T06:22:24;100085.63;;;3.43;76.40
74895;BME280;63447;49.446;8.666;2024-03-08T06:24:53;100083.34;;;3.50;76.31
74895;BME280;63447;49.446;8.666;2024-03-08T06:27:21;100060.69;;;3.31;77.51
74895;BME280;63447;49.446;8.666;2024-03-08T06:29:47;100068.53;;;3.37;77.12
74895;BME280;63447;49.446;8.666;2024-03-08T06:32:14;100060.41;;;3.32;77.77
74895;BME280;63447;49.446;8.666;2024-03-08T06:34:40;100060.34;;;3.37;77.40
74895;BME280;63447;49.446;8.666;2024-03-08T06:37:06;100060.59;;;3.60;80.31
74895;BME280;63447;49.446;8.666;2024-03-08T06:39:33;100068.72;;;3.84;77.32
74895;BME280;63447;49.446;8.666;2024-03-08T06:42:01;100059.50;;;3.61;76.56
74895;BME280;63447;49.446;8.666;2024-03-08T06:44:30;100061.94;;;3.62;76.18
74895;BME280;63447;49.446;8.666;2024-03-08T06:46:55;100052.72;;;3.58;76.58
74895;BME280;63447;49.446;8.666;2024-03-08T06:49:20;100065.06;;;3.51;77.11
74895;BME280;63447;49.446;8.666;2024-03-08T06:51:45;100068.72;;;3.41;77.81
74895;BME280;63447;49.446;8.666;2024-03-08T06:54:11;100069.78;;;3.45;77.45
74895;BME280;63447;49.446;8.666;2024-03-08T06:56:36;100074.53;;;3.58;77.17
74895;BME280;63447;49.446;8.666;2024-03-08T06:59:04;100075.63;;;3.57;75.24
74895;BME280;63447;49.446;8.666;2024-03-08T07:01:35;100083.25;;;3.60;75.84
74895;BME280;63447;49.446;8.666;2024-03-08T07:04:01;100070.25;;;3.52;75.54
74895;BME280;63447;49.446;8.666;2024-03-08T07:06:30;100075.34;;;3.59;76.61
74895;BME280;63447;49.446;8.666;2024-03-08T07:08:58;100077.56;;;3.57;75.75
74895;BME280;63447;49.446;8.666;2024-03-08T07:11:24;100069.59;;;3.79;76.02
74895;BME280;63447;49.446;8.666;2024-03-08T07:13:49;100077.34;;;3.91;75.23
74895;BME280;63447;49.446;8.666;2024-03-08T07:16:14;100073.13;;;3.98;75.00
74895;BME280;63447;49.446;8.666;2024-03-08T07:18:41;100074.13;;;3.89;74.22
74895;BME280;63447;49.446;8.666;2024-03-08T07:21:09;100072.50;;;3.88;74.11
74895;BME280;63447;49.446;8.666;2024-03-08T07:23:35;100057.06;;;3.97;74.47
74895;BME280;63447;49.446;8.666;2024-03-08T07:26:27;100068.56;;;3.94;73.96
74895;BME280;63447;49.446;8.666;2024-03-08T07:28:53;100092.41;;;3.88;74.18
74895;BME280;63447;49.446;8.666;2024-03-08T07:31:22;100067.75;;;4.12;73.48
74895;BME280;63447;49.446;8.666;2024-03-08T07:33:50;100042.00;;;3.99;73.33
74895;BME280;63447;49.446;8.666;2024-03-08T07:36:15;100059.28;;;4.14;73.25
74895;BME280;63447;49.446;8.666;2024-03-08T07:38:41;100041.28;;;4.13;73.35
74895;BME280;63447;49.446;8.666;2024-03-08T07:41:09;100050.13;;;4.04;73.21
74895;BME280;63447;49.446;8.666;2024-03-08T07:43:34;100044.59;;;4.09;74.47
74895;BME280;63447;49.446;8.666;2024-03-08T07:45:59;100041.66;;;4.38;72.41
74895;BME280;63447;49.446;8.666;2024-03-08T07:48:25;100044.22;;;4.49;72.17
74895;BME280;63447;49.446;8.666;2024-03-08T07:50:53;100033.72;;;4.56;72.99
74895;BME280;63447;49.446;8.666;2024-03-08T07:53:20;100040.25;;;4.87;72.06
74895;BME280;63447;49.446;8.666;2024-03-08T07:55:46;100034.94;;;4.63;70.96
74895;BME280;63447;49.446;8.666;2024-03-08T07:58:11;100030.94;;;5.02;70.53
74895;BME280;63447;49.446;8.666;2024-03-08T08:00:39;100033.34;;;5.31;71.69
74895;BME280;63447;49.446;8.666;2024-03-08T08:03:04;100023.09;;;5.50;67.48
74895;BME280;63447;49.446;8.666;2024-03-08T08:05:30;100018.16;;;5.38;69.15
74895;BME280;63447;49.446;8.666;2024-03-08T08:08:02;100011.88;;;5.38;68.60
74895;BME280;63447;49.446;8.666;2024-03-08T08:10:32;100012.69;;;5.74;66.41
74895;BME280;63447;49.446;8.666;2024-03-08T08:12:59;100010.97;;;5.78;66.27
74895;BME280;63447;49.446;8.666;2024-03-08T08:15:35;100011.97;;;5.83;66.23
74895;BME280;63447;49.446;8.666;2024-03-08T08:18:00;100009.03;;;6.15;66.47
74895;BME280;63447;49.446;8.666;2024-03-08T08:20:30;99999.44;;;6.26;64.65
74895;BME280;63447;49.446;8.666;2024-03-08T08:22:58;100008.03;;;6.11;64.13
74895;BME280;63447;49.446;8.666;2024-03-08T08:25:26;100015.81;;;6.40;64.12
74895;BME280;63447;49.446;8.666;2024-03-08T08:27:51;100013.03;;;6.62;62.80
74895;BME280;63447;49.446;8.666;2024-03-08T08:30:19;100011.59;;;6.96;61.71
74895;BME280;63447;49.446;8.666;2024-03-08T08:32:45;100026.13;;;6.96;63.01
74895;BME280;63447;49.446;8.666;2024-03-08T08:35:12;100020.31;;;7.06;61.80
74895;BME280;63447;49.446;8.666;2024-03-08T08:37:38;100028.66;;;6.93;61.83
74895;BME280;63447;49.446;8.666;2024-03-08T08:40:05;100024.19;;;7.05;60.57
74895;BME280;63447;49.446;8.666;2024-03-08T08:42:34;100002.28;;;5.99;62.08
74895;BME280;63447;49.446;8.666;2024-03-08T08:44:59;100013.28;;;6.83;63.24
74895;BME280;63447;49.446;8.666;2024-03-08T08:47:24;100021.84;;;7.30;61.44
74895;BME280;63447;49.446;8.666;2024-03-08T08:49:55;100007.22;;;7.43;60.15
74895;BME280;63447;49.446;8.666;2024-03-08T08:52:20;100006.09;;;6.11;62.91
74895;BME280;63447;49.446;8.666;2024-03-08T08:54:46;99988.59;;;5.99;63.63
74895;BME280;63447;49.446;8.666;2024-03-08T08:57:11;99999.09;;;6.81;62.46
74895;BME280;63447;49.446;8.666;2024-03-08T08:59:36;99994.16;;;6.61;61.72
74895;BME280;63447;49.446;8.666;2024-03-08T09:02:07;99979.88;;;7.21;60.47
74895;BME280;63447;49.446;8.666;2024-03-08T09:04:34;99984.66;;;7.06;62.10
74895;BME280;63447;49.446;8.666;2024-03-08T09:07:02;100005.06;;;6.52;61.46
74895;BME280;63447;49.446;8.666;2024-03-08T09:09:27;99985.56;;;6.54;61.97
74895;BME280;63447;49.446;8.666;2024-03-08T09:11:52;99980.50;;;7.18;60.53
74895;BME280;63447;49.446;8.666;2024-03-08T09:14:21;99983.94;;;6.84;61.01
74895;BME280;63447;49.446;8.666;2024-03-08T09:16:46;99977.88;;;6.95;61.75
74895;BME280;63447;49.446;8.666;2024-03-08T09:19:12;99966.03;;;7.43;59.11
74895;BME280;63447;49.446;8.666;2024-03-08T09:21:38;99970.22;;;6.84;61.65
74895;BME280;63447;49.446;8.666;2024-03-08T09:24:07;99983.97;;;6.92;60.30
74895;BME280;63447;49.446;8.666;2024-03-08T09:26:35;99976.00;;;6.73;60.36
74895;BME280;63447;49.446;8.666;2024-03-08T09:29:00;99986.09;;;7.04;60.06
74895;BME280;63447;49.446;8.666;2024-03-08T09:31:28;99969.50;;;7.00;59.67
74895;BME280;63447;49.446;8.666;2024-03-08T09:33:53;99967.34;;;7.71;59.41
74895;BME280;63447;49.446;8.666;2024-03-08T09:36:19;99967.19;;;7.85;59.67
74895;BME280;63447;49.446;8.666;2024-03-08T09:38:44;99970.34;;;8.56;57.94
74895;BME280;63447;49.446;8.666;2024-03-08T09:41:09;99959.88;;;8.24;57.16
74895;BME280;63447;49.446;8.666;2024-03-08T09:43:38;99970.47;;;9.06;54.75
74895;BME280;63447;49.446;8.666;2024-03-08T09:46:04;99957.53;;;8.98;54.94
74895;BME280;63447;49.446;8.666;2024-03-08T09:48:31;99965.13;;;9.01;53.89
74895;BME280;63447;49.446;8.666;2024-03-08T09:51:03;99939.84;;;9.58;53.76
74895;BME280;63447;49.446;8.666;2024-03-08T09:53:28;99956.00;;;9.39;52.89
74895;BME280;63447;49.446;8.666;2024-03-08T09:55:58;99957.56;;;9.69;54.29
74895;BME280;63447;49.446;8.666;2024-03-08T09:58:24;99957.81;;;9.97;54.39
74895;BME280;63447;49.446;8.666;2024-03-08T10:00:59;99926.69;;;10.63;51.53
74895;BME280;63447;49.446;8.666;2024-03-08T10:03:29;99948.44;;;11.13;50.89
74895;BME280;63447;49.446;8.666;2024-03-08T10:05:56;99948.53;;;10.92;51.51
74895;BME280;63447;49.446;8.666;2024-03-08T10:08:28;99941.28;;;11.00;50.73
74895;BME280;63447;49.446;8.666;2024-03-08T10:10:57;99946.09;;;11.39;49.66
74895;BME280;63447;49.446;8.666;2024-03-08T10:13:25;99943.59;;;11.10;47.14
74895;BME280;63447;49.446;8.666;2024-03-08T10:15:54;99934.84;;;9.72;51.34
74895;BME280;63447;49.446;8.666;2024-03-08T10:18:22;99942.50;;;9.67;51.89
74895;BME280;63447;49.446;8.666;2024-03-08T10:21:11;99938.94;;;8.95;53.33
74895;BME280;63447;49.446;8.666;2024-03-08T10:23:37;99933.53;;;9.07;53.49
74895;BME280;63447;49.446;8.666;2024-03-08T10:26:16;99930.44;;;8.79;55.33
74895;BME280;63447;49.446;8.666;2024-03-08T10:28:46;99935.81;;;9.35;53.54
74895;BME280;63447;49.446;8.666;2024-03-08T10:31:15;99907.56;;;7.94;56.17
74895;BME280;63447;49.446;8.666;2024-03-08T10:33:41;99900.56;;;8.14;57.45
74895;BME280;63447;49.446;8.666;2024-03-08T10:36:10;99921.41;;;8.15;56.49
74895;BME280;63447;49.446;8.666;2024-03-08T10:38:42;99919.31;;;8.12;57.22
74895;BME280;63447;49.446;8.666;2024-03-08T10:41:09;99923.63;;;8.39;56.04
74895;BME280;63447;49.446;8.666;2024-03-08T10:46:42;99917.44;;;7.52;57.46
74895;BME280;63447;49.446;8.666;2024-03-08T10:49:16;99916.47;;;7.74;57.67
74895;BME280;63447;49.446;8.666;2024-03-08T10:51:45;99887.63;;;8.06;56.86
74895;BME280;63447;49.446;8.666;2024-03-08T10:54:14;99903.53;;;7.92;57.89
74895;BME280;63447;49.446;8.666;2024-03-08T10:56:40;99904.03;;;7.76;57.55
74895;BME280;63447;49.446;8.666;2024-03-08T10:59:09;99898.59;;;8.23;56.79
74895;BME280;63447;49.446;8.666;2024-03-08T11:01:37;99885.50;;;8.29;56.81
74895;BME280;63447;49.446;8.666;2024-03-08T11:04:08;99890.47;;;8.44;56.07
74895;BME280;63447;49.446;8.666;2024-03-08T11:09:32;99907.66;;;8.15;56.39
74895;BME280;63447;49.446;8.666;2024-03-08T11:12:26;99890.84;;;8.25;57.69
74895;BME280;63447;49.446;8.666;2024-03-08T11:14:55;99898.50;;;7.94;56.35
74895;BME280;63447;49.446;8.666;2024-03-08T11:19:56;99893.59;;;8.72;55.08
74895;BME280;63447;49.446;8.666;2024-03-08T11:22:25;99894.25;;;8.98;54.51
74895;BME280;63447;49.446;8.666;2024-03-08T11:24:53;99887.13;;;8.21;55.64
74895;BME280;63447;49.446;8.666;2024-03-08T11:27:18;99874.75;;;8.53;55.67
74895;BME280;63447;49.446;8.666;2024-03-08T11:29:59;99869.94;;;8.41;56.68
74895;BME280;63447;49.446;8.666;2024-03-08T11:32:27;99857.28;;;9.08;54.09
74895;BME280;63447;49.446;8.666;2024-03-08T11:34:53;99875.38;;;8.88;55.53
74895;BME280;63447;49.446;8.666;2024-03-08T11:37:20;99865.44;;;8.75;54.08
74895;BME280;63447;49.446;8.666;2024-03-08T11:39:49;99869.09;;;9.08;53.98
74895;BME280;63447;49.446;8.666;2024-03-08T11:42:15;99858.81;;;9.59;52.25
74895;BME280;63447;49.446;8.666;2024-03-08T11:44:47;99858.47;;;9.94;52.21
74895;BME280;63447;49.446;8.666;2024-03-08T11:47:14;99859.75;;;9.01;53.18
74895;BME280;63447;49.446;8.666;2024-03-08T11:49:43;99859.16;;;9.37;52.93
74895;BME280;63447;49.446;8.666;2024-03-08T11:52:14;99841.94;;;9.94;52.52
74895;BME280;63447;49.446;8.666;2024-03-08T11:54:43;99829.75;;;10.28;51.50
74895;BME280;63447;49.446;8.666;2024-03-08T11:57:12;99838.13;;;10.68;50.27
74895;BME280;63447;49.446;8.666;2024-03-08T11:59:49;99827.91;;;10.68;49.87
74895;BME280;63447;49.446;8.666;2024-03-08T12:02:17;99827.81;;;11.29;49.21
74895;BME280;63447;49.446;8.666;2024-03-08T12:04:44;99823.38;;;12.75;48.42
74895;BME280;63447;49.446;8.666;2024-03-08T12:07:11;99825.06;;;11.85;46.38
74895;BME280;63447;49.446;8.666;2024-03-08T12:09:40;99817.44;;;11.66;46.72
74895;BME280;63447;49.446;8.666;2024-03-08T12:12:07;99801.75;;;11.14;47.38
74895;BME280;63447;49.446;8.666;2024-03-08T12:14:35;99763.69;;;11.08;48.88
74895;BME280;63447;49.446;8.666;2024-03-08T12:17:01;99794.50;;;11.66;48.23
74895;BME280;63447;49.446;8.666;2024-03-08T12:19:29;99795.47;;;12.01;46.67
74895;BME280;63447;49.446;8.666;2024-03-08T12:21:55;99787.44;;;11.52;46.49
74895;BME280;63447;49.446;8.666;2024-03-08T12:24:21;99773.88;;;14.80;41.97
74895;BME280;63447;49.446;8.666;2024-03-08T12:26:47;99793.13;;;17.61;37.67
74895;BME280;63447;49.446;8.666;2024-03-08T12:31:46;99776.75;;;20.65;31.56
74895;BME280;63447;49.446;8.666;2024-03-08T12:34:13;99779.97;;;21.39;29.04
74895;BME280;63447;49.446;8.666;2024-03-08T12:36:51;99772.16;;;20.82;29.71
74895;BME280;63447;49.446;8.666;2024-03-08T12:39:18;99769.28;;;21.61;29.66
74895;BME280;63447;49.446;8.666;2024-03-08T12:41:55;99763.22;;;20.53;29.84
74895;BME280;63447;49.446;8.666;2024-03-08T12:44:25;99768.66;;;21.77;27.29
74895;BME280;63447;49.446;8.666;2024-03-08T12:46:53;99752.06;;;21.28;28.36
74895;BME280;63447;49.446;8.666;2024-03-08T12:49:21;99744.78;;;22.42;27.07
74895;BME280;63447;49.446;8.666;2024-03-08T12:51:47;99753.09;;;21.72;28.09
74895;BME280;63447;49.446;8.666;2024-03-08T12:54:13;99741.19;;;20.96;28.35
74895;BME280;63447;49.446;8.666;2024-03-08T12:56:40;99744.03;;;21.57;27.44
74895;BME280;63447;49.446;8.666;2024-03-08T12:59:07;99724.31;;;19.55;30.55
74895;BME280;63447;49.446;8.666;2024-03-08T13:01:33;99719.34;;;17.51;32.78
74895;BME280;63447;49.446;8.666;2024-03-08T13:04:03;99706.97;;;17.45;34.33
74895;BME280;63447;49.446;8.666;2024-03-08T13:06:29;99709.13;;;19.53;31.77
74895;BME280;63447;49.446;8.666;2024-03-08T13:08:56;99701.25;;;22.30;26.90
74895;BME280;63447;49.446;8.666;2024-03-08T13:11:25;99673.66;;;23.64;25.75
74895;BME280;63447;49.446;8.666;2024-03-08T13:13:51;99699.41;;;21.66;27.41
74895;BME280;63447;49.446;8.666;2024-03-08T13:16:18;99695.97;;;21.55;26.35